Time;durP1;ratioP1;P1;durP2;ratioP2;P2;SDS_P1;SDS_P2;PMS_P1;PMS_P2;Temp;Humidity;BMP_temperature;BMP_pressure;BME280_temperature;BME280_humidity;BME280_pressure;Samples;Min_cycle;Max_cycle;Signal;HPM_P1;HPM_P2
2022/03/02 00:00:06;;;;;;;12.05;10.75;;;;;;;10.38;76.23;101186.75;5048645;28;20033;-84
2022/03/02 00:02:32;;;;;;;10.98;9.88;;;;;;;10.61;75.18;101170.56;5031808;28;20029;-84
2022/03/02 00:04:57;;;;;;;11.68;10.48;;;;;;;10.63;75.08;101179.22;5031949;28;20108;-84
2022/03/02 00:07:23;;;;;;;11.60;10.23;;;;;;;10.82;74.51;101173.78;5045892;28;20029;-84
2022/03/02 00:09:48;;;;;;;11.35;10.05;;;;;;;10.79;74.39;101170.47;5051619;28;20024;-83
2022/03/02 00:12:14;;;;;;;11.77;10.57;;;;;;;10.93;73.77;101170.53;5051740;28;20032;-83
2022/03/02 00:14:39;;;;;;;12.15;10.75;;;;;;;10.98;73.85;101168.50;5052119;28;20024;-84
2022/03/02 00:17:05;;;;;;;11.05;9.95;;;;;;;10.97;73.48;101173.81;5047683;28;20049;-83
2022/03/02 00:19:30;;;;;;;11.20;9.52;;;;;;;10.69;74.59;101178.03;5052127;28;20036;-83
2022/03/02 00:21:55;;;;;;;11.55;9.90;;;;;;;10.74;74.71;101168.09;5049785;28;20471;-83
2022/03/02 00:24:21;;;;;;;11.90;10.45;;;;;;;10.80;74.17;101169.53;5051915;28;20109;-83
2022/03/02 00:26:46;;;;;;;11.52;10.20;;;;;;;10.93;73.65;101167.91;5049899;28;20053;-83
2022/03/02 00:29:11;;;;;;;11.98;9.95;;;;;;;10.81;74.33;101165.97;5050287;28;20041;-83
2022/03/02 00:31:37;;;;;;;13.20;10.75;;;;;;;10.99;73.28;101157.03;5051994;28;20025;-83
2022/03/02 00:34:02;;;;;;;10.90;9.63;;;;;;;10.68;74.55;101153.53;5049812;28;20037;-83
2022/03/02 00:36:28;;;;;;;12.95;10.57;;;;;;;10.68;74.79;101150.91;5049671;28;20025;-84
2022/03/02 00:38:53;;;;;;;13.52;10.07;;;;;;;10.38;75.84;101147.38;5049906;28;20130;-83
2022/03/02 00:41:19;;;;;;;11.50;9.70;;;;;;;10.45;75.89;101153.97;5047525;28;20026;-83
2022/03/02 00:43:47;;;;;;;11.43;10.23;;;;;;;10.43;76.23;101151.44;5051764;28;20021;-83
2022/03/02 00:46:13;;;;;;;11.18;10.02;;;;;;;10.66;75.15;101142.28;5049751;28;20040;-84
2022/03/02 00:48:39;;;;;;;12.32;10.82;;;;;;;10.48;75.41;101145.91;5050899;28;20029;-83
2022/03/02 00:51:04;;;;;;;11.77;10.55;;;;;;;10.55;75.90;101147.28;5052078;28;20025;-83
2022/03/02 00:53:30;;;;;;;11.63;10.38;;;;;;;10.63;75.25;101142.44;5052375;28;20029;-83
2022/03/02 00:55:55;;;;;;;14.10;10.95;;;;;;;10.61;75.44;101123.28;5049887;28;20494;-83
2022/03/02 00:58:21;;;;;;;12.15;10.85;;;;;;;10.71;74.90;101126.25;5045984;28;20467;-82
2022/03/02 01:00:46;;;;;;;12.43;10.13;;;;;;;10.73;74.81;101119.13;5050846;28;20580;-83
2022/03/02 01:03:11;;;;;;;12.18;10.13;;;;;;;10.79;75.07;101120.56;5052521;28;20548;-83
2022/03/02 01:05:39;;;;;;;12.27;10.98;;;;;;;10.47;75.70;101123.25;5049812;28;20051;-83
2022/03/02 01:08:05;;;;;;;11.73;10.48;;;;;;;10.55;75.95;101118.41;5055738;28;20122;-84
2022/03/02 01:10:30;;;;;;;11.40;10.23;;;;;;;10.64;75.31;101115.25;5054329;28;20032;-83
2022/03/02 01:12:56;;;;;;;10.50;9.43;;;;;;;10.59;75.43;101114.66;5056203;28;20036;-83
2022/03/02 01:15:21;;;;;;;11.07;9.95;;;;;;;10.39;76.50;101123.66;5054606;28;20441;-84
2022/03/02 01:17:47;;;;;;;10.30;9.25;;;;;;;10.42;76.76;101123.47;5056472;28;20115;-84
2022/03/02 01:20:12;;;;;;;12.55;10.25;;;;;;;10.55;76.50;101110.53;5050943;28;20022;-83
2022/03/02 01:22:39;;;;;;;12.18;10.02;;;;;;;10.56;76.06;101117.44;5056336;28;20399;-83
2022/03/02 01:25:07;;;;;;;11.63;10.43;;;;;;;10.65;75.24;101106.44;5054074;28;20078;-83
2022/03/02 01:27:32;;;;;;;11.43;10.00;;;;;;;10.44;76.12;101111.09;5053276;28;20028;-83
2022/03/02 01:29:58;;;;;;;11.07;9.98;;;;;;;10.85;75.18;101104.44;5054247;28;20075;-84
2022/03/02 01:32:24;;;;;;;10.90;9.75;;;;;;;10.93;74.54;101098.75;5052661;28;20466;-83
2022/03/02 01:34:49;;;;;;;11.18;10.00;;;;;;;10.99;74.16;101101.84;5054715;28;20028;-83
2022/03/02 01:37:14;;;;;;;11.32;9.95;;;;;;;10.85;74.91;101104.44;5051265;28;20036;-84
2022/03/02 01:39:40;;;;;;;10.60;9.48;;;;;;;10.76;74.61;101104.97;5055368;28;20021;-84
2022/03/02 01:42:06;;;;;;;11.32;10.20;;;;;;;10.65;75.25;101098.56;5053259;28;20025;-83
2022/03/02 01:44:34;;;;;;;11.63;10.43;;;;;;;10.75;75.36;101095.41;5055402;28;20028;-82
2022/03/02 01:47:00;;;;;;;10.55;9.50;;;;;;;10.91;74.59;101093.56;5053688;28;20025;-84
2022/03/02 01:49:26;;;;;;;10.43;9.38;;;;;;;10.68;75.66;101090.50;5054807;28;20036;-84
2022/03/02 01:51:51;;;;;;;11.27;9.70;;;;;;;10.91;74.68;101083.06;5052077;28;20032;-84
2022/03/02 01:54:17;;;;;;;12.38;11.07;;;;;;;10.82;75.05;101084.47;5053930;28;20032;-84
2022/03/02 01:56:42;;;;;;;12.60;9.85;;;;;;;10.93;74.97;101075.94;5053730;28;20045;-84
2022/03/02 01:59:09;;;;;;;11.05;9.77;;;;;;;11.15;73.86;101079.94;5054928;28;20025;-84
2022/03/02 02:01:34;;;;;;;11.20;10.00;;;;;;;11.15;73.83;101074.66;5052700;28;20494;-84
2022/03/02 02:04:01;;;;;;;11.30;10.13;;;;;;;11.11;73.87;101069.59;5058398;28;20053;-84
2022/03/02 02:06:26;;;;;;;11.73;10.15;;;;;;;10.93;74.34;101073.31;5054302;28;20029;-84
2022/03/02 02:08:52;;;;;;;10.70;9.57;;;;;;;11.10;73.98;101067.91;5053715;28;20116;-84
2022/03/02 02:11:18;;;;;;;11.07;9.95;;;;;;;11.10;73.97;101061.81;5054126;28;20386;-83
2022/03/02 02:13:43;;;;;;;14.32;10.23;;;;;;;11.07;73.89;101052.31;5057446;28;20048;-84
2022/03/02 02:16:09;;;;;;;10.63;9.52;;;;;;;11.07;74.32;101057.56;5050953;28;20029;-84
2022/03/02 02:18:35;;;;;;;10.93;9.82;;;;;;;10.62;75.53;101051.44;5053811;28;20029;-83
2022/03/02 02:21:03;;;;;;;11.40;10.10;;;;;;;10.96;74.75;101046.88;5052639;28;20039;-84
2022/03/02 02:23:28;;;;;;;11.02;9.77;;;;;;;11.02;74.40;101049.13;5054816;28;20108;-84
2022/03/02 02:25:54;;;;;;;11.10;9.60;;;;;;;11.18;73.85;101048.22;5052033;28;20120;-84
2022/03/02 02:28:24;;;;;;;11.55;10.35;;;;;;;11.18;73.66;101050.84;5054418;28;20433;-84
2022/03/02 02:30:53;;;;;;;11.90;10.50;;;;;;;11.04;74.45;101046.41;5052100;28;20043;-84
2022/03/02 02:33:19;;;;;;;11.60;10.40;;;;;;;11.08;74.32;101046.13;5053498;28;20029;-84
2022/03/02 02:35:45;;;;;;;11.85;10.52;;;;;;;11.15;74.04;101046.59;5051711;28;20033;-84
2022/03/02 02:38:10;;;;;;;11.90;10.70;;;;;;;11.21;73.79;101042.75;5050615;28;20033;-84
2022/03/02 02:40:36;;;;;;;10.20;9.20;;;;;;;11.21;73.33;101033.09;5053770;28;20029;-84
2022/03/02 02:43:02;;;;;;;11.57;9.70;;;;;;;11.26;73.52;101027.56;5052802;28;20025;-84
2022/03/02 02:45:27;;;;;;;11.90;10.63;;;;;;;11.21;74.22;101030.44;5051465;28;20033;-84
2022/03/02 02:47:56;;;;;;;11.00;9.90;;;;;;;11.33;73.55;101026.22;5053322;28;20028;-84
2022/03/02 02:50:31;;;;;;;11.50;10.32;;;;;;;11.43;73.12;101027.38;5050224;28;20067;-84
2022/03/02 02:52:58;;;;;;;11.63;10.23;;;;;;;11.15;73.74;101024.72;5052854;28;20410;-84
2022/03/02 02:55:25;;;;;;;10.73;9.73;;;;;;;11.38;73.17;101016.28;5051964;28;20100;-83
2022/03/02 02:57:55;;;;;;;13.00;11.05;;;;;;;11.43;72.79;101008.97;5050737;28;20029;-82
2022/03/02 03:00:26;;;;;;;11.63;10.43;;;;;;;11.47;73.05;101012.22;5011958;28;1119423;-83
2022/03/02 03:02:52;;;;;;;12.98;10.25;;;;;;;11.52;73.00;101015.44;5052635;28;20032;-83
2022/03/02 03:05:20;;;;;;;11.18;10.00;;;;;;;11.48;73.10;101022.66;5050609;28;20028;-84
2022/03/02 03:07:47;;;;;;;12.32;11.02;;;;;;;11.37;73.53;101006.69;5053913;28;20470;-84
2022/03/02 03:10:14;;;;;;;12.95;11.10;;;;;;;11.46;73.22;100995.63;5051665;28;20043;-84
2022/03/02 03:12:40;;;;;;;11.80;10.52;;;;;;;11.53;73.04;101001.31;5036096;28;20387;-84
2022/03/02 03:15:07;;;;;;;11.90;10.63;;;;;;;11.55;72.87;101009.13;5049310;28;20033;-84
2022/03/02 03:17:33;;;;;;;11.27;10.00;;;;;;;11.43;73.24;100990.56;5033151;28;20032;-84
2022/03/02 03:19:58;;;;;;;10.75;9.65;;;;;;;11.51;73.30;100996.19;5034101;28;20029;-84
2022/03/02 03:22:24;;;;;;;11.90;10.60;;;;;;;11.51;73.22;100993.56;5039393;28;20033;-84
2022/03/02 03:24:50;;;;;;;10.32;9.25;;;;;;;11.60;72.88;100996.56;5035526;28;20096;-84
2022/03/02 03:27:15;;;;;;;11.30;9.75;;;;;;;11.58;72.94;100982.66;5033425;28;20029;-84
2022/03/02 03:29:40;;;;;;;11.85;10.63;;;;;;;11.52;73.48;100987.34;5035323;28;20086;-84
2022/03/02 03:32:07;;;;;;;12.75;11.25;;;;;;;11.56;73.10;100981.91;5049426;28;20071;-84
2022/03/02 03:34:32;;;;;;;11.48;10.18;;;;;;;11.63;72.97;100976.16;5052477;28;20479;-84
2022/03/02 03:36:58;;;;;;;11.95;10.75;;;;;;;11.63;72.90;100970.91;5051003;28;20029;-84
2022/03/02 03:39:23;;;;;;;12.20;10.88;;;;;;;11.54;73.18;100970.63;5053308;28;20025;-84
2022/03/02 03:41:49;;;;;;;12.00;10.75;;;;;;;11.52;73.48;100979.44;5051724;28;20021;-84
2022/03/02 03:44:14;;;;;;;12.05;10.43;;;;;;;11.60;73.13;100963.19;5050901;28;20478;-84
2022/03/02 03:46:40;;;;;;;13.88;11.63;;;;;;;11.57;72.83;100966.03;5052740;28;20021;-84
2022/03/02 03:49:06;;;;;;;13.43;12.02;;;;;;;11.36;73.88;100957.69;5052566;28;20573;-84
2022/03/02 03:51:32;;;;;;;13.38;11.93;;;;;;;11.55;73.51;100952.09;5051638;28;20037;-84
2022/03/02 03:53:57;;;;;;;12.80;11.25;;;;;;;11.30;74.53;100950.19;5052815;28;20021;-84
2022/03/02 03:56:23;;;;;;;13.52;12.15;;;;;;;11.31;74.33;100954.50;5051615;28;20033;-84
2022/03/02 03:58:49;;;;;;;13.07;11.57;;;;;;;11.39;73.77;100941.72;5052363;28;20095;-84
2022/03/02 04:01:14;;;;;;;14.85;12.18;;;;;;;11.20;74.89;100938.56;5052319;28;20103;-84
2022/03/02 04:03:40;;;;;;;13.80;11.70;;;;;;;11.27;74.88;100940.69;5052496;28;20033;-84
2022/03/02 04:06:05;;;;;;;14.95;12.48;;;;;;;11.31;74.78;100934.34;5052629;28;20547;-84
2022/03/02 04:08:31;;;;;;;14.55;12.50;;;;;;;11.49;74.09;100932.31;5051200;28;20030;-84
2022/03/02 04:10:56;;;;;;;14.88;12.88;;;;;;;11.62;73.79;100931.53;5048740;28;20124;-84
2022/03/02 04:13:21;;;;;;;15.05;12.80;;;;;;;11.47;73.69;100938.59;5051547;28;20029;-84
2022/03/02 04:15:47;;;;;;;16.75;13.10;;;;;;;11.36;74.46;100926.16;5052851;28;20057;-84
2022/03/02 04:18:12;;;;;;;15.88;13.45;;;;;;;11.38;74.65;100933.94;5050872;28;20462;-84
2022/03/02 04:20:38;;;;;;;15.38;13.15;;;;;;;11.36;74.68;100925.31;5049918;28;20025;-84
2022/03/02 04:23:05;;;;;;;15.05;12.38;;;;;;;11.55;74.28;100919.72;5051076;28;20090;-84
2022/03/02 04:25:30;;;;;;;15.70;13.38;;;;;;;11.60;73.81;100920.28;5050391;28;20044;-84
2022/03/02 04:27:56;;;;;;;17.60;13.77;;;;;;;11.61;73.89;100916.69;5052373;28;20028;-84
2022/03/02 04:30:22;;;;;;;15.80;13.57;;;;;;;11.66;73.70;100917.25;5051200;28;20029;-84
2022/03/02 04:32:47;;;;;;;17.70;13.88;;;;;;;11.61;73.99;100914.06;5051275;28;20414;-84
2022/03/02 04:35:13;;;;;;;18.73;13.45;;;;;;;11.66;73.97;100917.25;5050536;28;20052;-84
2022/03/02 04:37:40;;;;;;;19.27;15.10;;;;;;;11.72;73.60;100906.31;5052360;28;20511;-84
2022/03/02 04:40:09;;;;;;;18.20;14.88;;;;;;;11.64;73.94;100909.44;5050175;28;20029;-84
2022/03/02 04:42:35;;;;;;;16.63;13.77;;;;;;;11.69;73.78;100901.28;5052472;28;20440;-84
2022/03/02 04:45:00;;;;;;;20.52;15.82;;;;;;;11.69;74.18;100901.28;5051593;28;20045;-84
2022/03/02 04:47:26;;;;;;;19.77;15.13;;;;;;;11.52;74.43;100897.94;5051452;28;20029;-84
2022/03/02 04:49:51;;;;;;;19.92;15.48;;;;;;;11.64;74.09;100890.19;5052093;28;20065;-84
2022/03/02 04:52:17;;;;;;;22.15;15.98;;;;;;;11.63;74.38;100897.25;5050947;28;20017;-84
2022/03/02 04:57:27;;;;;;;22.10;17.30;;;;;;;11.45;75.18;100896.66;5042098;28;20040;-84
2022/03/02 04:59:52;;;;;;;21.52;16.27;;;;;;;11.47;74.99;100892.13;5052051;28;20029;-84
2022/03/02 05:02:18;;;;;;;22.67;16.63;;;;;;;11.72;74.01;100893.19;5052743;28;20030;-84
2022/03/02 05:04:43;;;;;;;22.83;17.48;;;;;;;11.63;74.50;100892.00;5049318;28;20025;-85
2022/03/02 05:07:09;;;;;;;20.95;16.60;;;;;;;11.78;73.93;100884.88;5050597;28;20541;-84
2022/03/02 05:09:35;;;;;;;25.02;17.38;;;;;;;11.62;74.60;100878.94;5051323;28;20120;-84
2022/03/02 05:12:02;;;;;;;23.20;17.35;;;;;;;11.73;74.47;100875.59;5043067;28;20067;-84
2022/03/02 05:14:28;;;;;;;23.85;18.08;;;;;;;11.64;74.71;100879.69;5032260;28;20052;-84
2022/03/02 05:16:54;;;;;;;25.02;17.95;;;;;;;11.78;74.19;100884.88;5046835;28;20116;-84
2022/03/02 05:19:19;;;;;;;23.08;18.10;;;;;;;11.67;74.30;100880.34;5049960;28;20112;-84
2022/03/02 05:21:44;;;;;;;25.90;17.35;;;;;;;11.80;74.31;100880.34;5051896;28;20025;-84
2022/03/02 05:24:10;;;;;;;25.17;19.25;;;;;;;11.89;74.03;100871.91;5048196;28;20074;-84
2022/03/02 05:26:35;;;;;;;28.77;19.85;;;;;;;11.92;73.91;100875.28;5046106;28;20040;-84
2022/03/02 05:29:00;;;;;;;27.27;19.13;;;;;;;11.85;74.36;100867.75;5047151;28;20043;-85
2022/03/02 05:31:26;;;;;;;24.92;18.58;;;;;;;11.93;73.86;100872.56;5047555;28;20031;-84
2022/03/02 05:33:51;;;;;;;29.42;19.55;;;;;;;11.87;73.85;100871.13;5048428;28;20124;-84
2022/03/02 05:36:18;;;;;;;27.27;19.35;;;;;;;11.94;73.76;100876.00;5049224;28;20021;-84
2022/03/02 05:38:43;;;;;;;30.83;20.58;;;;;;;11.68;74.65;100866.22;5051507;28;20086;-85
2022/03/02 05:41:09;;;;;;;26.25;18.55;;;;;;;11.90;73.88;100872.72;5049861;28;20041;-84
2022/03/02 05:43:34;;;;;;;26.27;19.55;;;;;;;11.98;73.83;100875.69;5051268;28;20032;-84
2022/03/02 05:46:00;;;;;;;28.67;20.52;;;;;;;11.97;73.83;100868.75;5049340;28;20033;-84
2022/03/02 05:48:25;;;;;;;30.67;20.35;;;;;;;11.96;74.01;100880.22;5051462;28;20032;-84
2022/03/02 05:50:50;;;;;;;30.23;21.40;;;;;;;11.82;74.52;100870.56;5050273;28;20037;-84
2022/03/02 05:53:16;;;;;;;32.25;21.67;;;;;;;11.81;74.44;100874.16;5052800;28;20028;-84
2022/03/02 05:55:41;;;;;;;30.98;22.75;;;;;;;11.83;74.80;100864.38;5049600;28;20034;-84
2022/03/02 05:58:06;;;;;;;33.33;23.25;;;;;;;11.65;75.45;100868.19;5048137;28;20164;-84
2022/03/02 06:00:32;;;;;;;34.55;23.25;;;;;;;11.85;74.49;100870.38;5052095;28;20052;-84
2022/03/02 06:02:57;;;;;;;32.83;23.27;;;;;;;12.00;74.18;100870.34;5045532;28;20025;-83
2022/03/02 06:05:22;;;;;;;34.78;23.52;;;;;;;11.90;74.25;100857.78;5052743;28;20025;-84
2022/03/02 06:07:48;;;;;;;39.28;25.02;;;;;;;11.79;75.01;100859.41;5051151;28;20043;-83
2022/03/02 06:10:14;;;;;;;43.47;26.10;;;;;;;11.63;75.19;100862.19;5052864;28;20033;-84
2022/03/02 06:12:39;;;;;;;39.47;25.50;;;;;;;11.85;75.17;100878.28;5052097;28;20124;-83
2022/03/02 06:15:07;;;;;;;49.65;27.38;;;;;;;11.97;74.80;100863.50;5056316;28;20554;-84
2022/03/02 06:17:32;;;;;;;43.67;25.92;;;;;;;11.84;75.30;100852.91;5044970;28;20031;-84
2022/03/02 06:19:58;;;;;;;42.28;26.92;;;;;;;11.93;74.87;100863.78;5050805;28;20116;-84
2022/03/02 06:22:25;;;;;;;45.00;28.02;;;;;;;11.76;75.66;100870.97;5053999;28;20035;-85
2022/03/02 06:24:51;;;;;;;58.50;28.80;;;;;;;11.96;74.97;100866.22;5049960;28;20075;-84
2022/03/02 06:27:20;;;;;;;55.85;27.10;;;;;;;12.07;74.76;100874.25;5052279;28;20024;-84
2022/03/02 06:29:45;;;;;;;57.15;28.02;;;;;;;11.95;75.05;100859.25;5053697;28;20021;-86
2022/03/02 06:32:11;;;;;;;43.65;28.88;;;;;;;11.94;75.16;100868.13;5067341;28;20035;-86
2022/03/02 06:34:36;;;;;;;52.90;29.95;;;;;;;11.92;75.59;100867.38;5073994;28;20028;-87
2022/03/02 06:37:02;;;;;;;46.40;31.20;;;;;;;11.92;75.32;100864.75;5051894;28;20025;-87
2022/03/02 06:39:28;;;;;;;48.88;30.10;;;;;;;11.99;74.90;100866.88;5050779;28;20023;-87
2022/03/02 06:42:13;;;;;;;53.90;29.65;;;;;;;12.05;75.03;100873.53;5051136;28;20021;-86
2022/03/02 06:44:49;;;;;;;49.90;29.80;;;;;;;12.08;75.14;100863.63;5073091;28;20425;-87
2022/03/02 06:47:18;;;;;;;63.75;29.63;;;;;;;12.00;75.37;100865.06;5051842;28;20029;-85
2022/03/02 06:49:48;;;;;;;84.15;33.88;;;;;;;11.97;75.51;100873.19;5049623;28;20079;-87
2022/03/02 06:52:19;;;;;;;68.35;32.10;;;;;;;11.99;75.60;100866.88;5052351;28;20056;-86
2022/03/02 06:54:48;;;;;;;57.47;34.33;;;;;;;12.14;74.92;100875.50;5051418;28;20175;-86
2022/03/02 06:57:19;;;;;;;69.15;33.10;;;;;;;11.93;75.86;100871.69;5049038;28;20029;-85
2022/03/02 06:59:51;;;;;;;69.93;33.58;;;;;;;12.00;75.93;100875.59;5051751;28;20040;-87
2022/03/02 07:02:39;;;;;;;48.50;32.42;;;;;;;12.17;75.01;100867.44;5048109;28;20025;-87
2022/03/02 07:05:08;;;;;;;53.05;33.28;;;;;;;12.05;75.53;100870.88;5049619;28;20041;-87
2022/03/02 07:07:34;;;;;;;50.75;32.67;;;;;;;12.21;74.97;100873.34;5043435;28;20025;-85
2022/03/02 07:10:00;;;;;;;51.83;32.97;;;;;;;12.23;74.78;100872.28;5046517;28;20767;-85
2022/03/02 07:12:26;;;;;;;77.35;36.35;;;;;;;12.15;75.27;100873.75;5049941;28;20082;-85
2022/03/02 07:14:53;;;;;;;58.55;34.03;;;;;;;12.20;75.20;100869.00;5052631;28;20047;-84
2022/03/02 07:17:18;;;;;;;82.13;36.50;;;;;;;12.04;75.77;100875.28;5053176;28;20475;-84
2022/03/02 07:19:44;;;;;;;87.45;38.33;;;;;;;11.95;76.25;100875.06;5050490;28;20083;-84
2022/03/02 07:22:15;;;;;;;80.70;38.15;;;;;;;12.00;76.37;100883.50;5052387;28;20036;-84
2022/03/02 07:24:50;;;;;;;72.80;37.88;;;;;;;12.15;75.68;100877.22;5051663;28;20033;-84
2022/03/02 07:27:15;;;;;;;63.08;35.83;;;;;;;12.21;75.35;100871.53;5052464;28;20036;-84
2022/03/02 07:29:41;;;;;;;66.80;36.33;;;;;;;12.19;75.60;100873.44;5052864;28;20025;-84
2022/03/02 07:32:08;;;;;;;83.93;39.38;;;;;;;12.13;75.67;100873.84;5051833;28;20025;-84
2022/03/02 07:34:33;;;;;;;64.82;37.55;;;;;;;12.23;75.47;100869.66;5048081;28;20111;-84
2022/03/02 07:37:00;;;;;;;70.57;38.20;;;;;;;12.25;75.21;100873.00;5049560;28;20109;-84
2022/03/02 07:39:27;;;;;;;83.45;40.45;;;;;;;12.18;75.29;100871.72;5051884;28;20059;-84
2022/03/02 07:41:52;;;;;;;78.22;39.58;;;;;;;12.22;75.28;100875.00;5042167;28;20047;-84
2022/03/02 07:44:18;;;;;;;80.90;40.70;;;;;;;12.18;75.53;100871.72;5045087;28;20025;-84
2022/03/02 07:46:45;;;;;;;74.75;39.47;;;;;;;12.26;75.50;100874.72;5045137;28;20055;-84
2022/03/02 07:49:10;;;;;;;85.85;41.83;;;;;;;12.36;75.03;100874.94;5040460;28;20034;-84
2022/03/02 07:51:39;;;;;;;79.65;41.63;;;;;;;12.23;75.58;100882.81;5051171;28;20025;-84
2022/03/02 07:54:05;;;;;;;74.32;41.60;;;;;;;12.43;74.83;100883.25;5049625;28;20029;-85
2022/03/02 07:56:32;;;;;;;77.65;41.67;;;;;;;12.29;75.40;100882.38;5052486;28;20641;-84
2022/03/02 07:59:02;;;;;;;83.30;42.63;;;;;;;12.29;75.49;100879.75;5042165;28;20029;-84
2022/03/02 08:01:28;;;;;;;84.00;42.90;;;;;;;12.36;75.32;100880.22;5047462;28;20060;-85
2022/03/02 08:03:57;;;;;;;80.70;42.55;;;;;;;12.49;74.73;100882.81;5050325;28;20503;-83
2022/03/02 08:06:23;;;;;;;84.07;42.25;;;;;;;12.52;74.71;100877.38;5048220;28;20120;-83
2022/03/02 08:08:50;;;;;;;80.10;40.88;;;;;;;12.60;74.49;100885.56;5050813;28;20032;-84
2022/03/02 08:11:16;;;;;;;82.15;42.00;;;;;;;12.60;74.40;100882.06;5039214;28;20026;-84
2022/03/02 08:13:42;;;;;;;86.70;44.53;;;;;;;12.44;74.70;100883.16;5047238;28;20044;-84
2022/03/02 08:16:07;;;;;;;86.65;42.45;;;;;;;12.52;74.54;100879.13;5044387;28;20033;-84
2022/03/02 08:18:33;;;;;;;92.55;43.63;;;;;;;12.43;74.75;100884.09;5052102;28;20031;-84
2022/03/02 08:21:00;;;;;;;86.53;44.55;;;;;;;12.56;74.58;100880.59;5050212;28;20091;-84
2022/03/02 08:23:33;;;;;;;78.85;41.03;;;;;;;12.64;74.11;100884.41;5047284;28;20066;-84
2022/03/02 08:25:59;;;;;;;79.60;41.85;;;;;;;12.44;74.96;100877.03;5041410;28;20020;-84
2022/03/02 08:28:25;;;;;;;78.57;42.17;;;;;;;12.48;74.73;100873.25;5047954;28;20032;-84
2022/03/02 08:30:52;;;;;;;76.55;40.65;;;;;;;12.43;74.84;100880.63;5043926;28;20036;-84
2022/03/02 08:33:27;;;;;;;81.05;41.92;;;;;;;12.38;75.08;100875.69;5037186;28;20040;-85
2022/03/02 08:35:53;;;;;;;79.85;41.03;;;;;;;12.13;75.94;100879.13;5040261;28;20495;-83
2022/03/02 08:38:19;;;;;;;75.82;39.97;;;;;;;12.34;75.17;100868.06;5037681;28;20052;-84
2022/03/02 08:40:45;;;;;;;75.57;38.95;;;;;;;12.19;75.71;100870.81;5039108;28;20056;-84
2022/03/02 08:43:13;;;;;;;71.93;37.80;;;;;;;12.45;75.10;100873.47;5052716;28;20025;-84
2022/03/02 08:45:38;;;;;;;70.00;37.95;;;;;;;12.41;75.04;100861.44;5046866;28;20025;-84
2022/03/02 08:48:05;;;;;;;74.30;38.00;;;;;;;12.18;75.31;100877.00;5052349;28;20037;-84
2022/03/02 08:50:31;;;;;;;68.20;35.00;;;;;;;12.24;75.30;100866.09;5051709;28;20248;-84
2022/03/02 08:52:57;;;;;;;66.70;36.22;;;;;;;12.11;75.71;100875.75;5052308;28;20194;-84
2022/03/02 08:55:29;;;;;;;68.88;35.08;;;;;;;12.19;75.70;100878.69;5050241;28;20117;-84
2022/03/02 08:57:54;;;;;;;;;;;;;;;12.24;75.65;100873.13;5051242;28;20037;-84
2022/03/02 09:00:20;;;;;;;61.97;33.90;;;;;;;12.34;74.84;100875.97;5050958;28;19923;-84
2022/03/02 09:02:47;;;;;;;62.75;33.17;;;;;;;12.32;74.95;100878.69;5047598;28;20033;-84
2022/03/02 09:05:12;;;;;;;65.50;34.75;;;;;;;12.34;74.69;100881.22;5048134;28;20488;-84
2022/03/02 09:07:38;;;;;;;72.25;37.67;;;;;;;12.29;74.59;100876.28;5051766;28;20039;-84
2022/03/02 09:10:05;;;;;;;79.20;36.88;;;;;;;12.30;74.88;100881.47;5047942;28;20037;-84
2022/03/02 09:12:30;;;;;;;69.72;35.40;;;;;;;12.16;74.86;100878.88;5049232;28;20421;-84
2022/03/02 09:14:57;;;;;;;67.50;34.17;;;;;;;12.35;74.79;100872.41;5043992;28;20058;-84
2022/03/02 09:17:25;;;;;;;76.55;35.58;;;;;;;12.23;74.71;100868.81;5051539;28;20029;-84
2022/03/02 09:19:55;;;;;;;65.22;34.47;;;;;;;12.20;75.03;100864.56;5051463;28;20055;-85
2022/03/02 09:22:22;;;;;;;69.85;34.22;;;;;;;12.43;74.03;100878.81;5050595;28;20029;-85
2022/03/02 09:24:48;;;;;;;66.00;33.72;;;;;;;12.34;74.44;100876.81;5047302;28;20029;-84
2022/03/02 09:27:13;;;;;;;67.07;34.30;;;;;;;12.33;74.51;100872.50;5049192;28;20202;-84
2022/03/02 09:29:42;;;;;;;68.05;35.30;;;;;;;12.49;73.80;100875.75;5052815;28;20037;-84
2022/03/02 09:32:10;;;;;;;70.72;35.90;;;;;;;12.37;74.42;100870.50;5043407;28;20044;-85
2022/03/02 09:34:40;;;;;;;73.93;37.13;;;;;;;12.26;74.92;100874.72;5041959;28;20387;-85
2022/03/02 09:37:09;;;;;;;73.80;36.47;;;;;;;12.42;73.82;100873.66;5053058;28;20032;-85
2022/03/02 09:39:35;;;;;;;69.47;35.75;;;;;;;12.39;73.86;100872.06;5073680;28;20043;-85
2022/03/02 09:42:10;;;;;;;72.40;35.80;;;;;;;12.39;73.78;100873.88;5054372;28;20025;-85
2022/03/02 09:44:43;;;;;;;71.53;35.63;;;;;;;12.43;73.74;100875.34;5060679;28;20035;-85
2022/03/02 09:47:16;;;;;;;81.07;37.92;;;;;;;12.16;74.21;100875.44;5053072;28;20028;-85
2022/03/02 09:49:47;;;;;;;76.22;36.45;;;;;;;12.18;74.88;100877.00;5052539;28;20383;-85
2022/03/02 09:52:17;;;;;;;82.50;37.87;;;;;;;12.32;74.15;100872.59;5053829;28;20514;-85
2022/03/02 09:54:53;;;;;;;73.13;36.22;;;;;;;12.13;75.04;100863.31;5052538;28;20064;-85
2022/03/02 09:57:20;;;;;;;73.57;34.78;;;;;;;12.06;74.56;100877.81;5053403;28;20025;-85
2022/03/02 09:59:57;;;;;;;72.50;36.55;;;;;;;12.25;74.34;100862.47;5053596;28;20498;-85
2022/03/02 10:02:37;;;;;;;69.63;36.72;;;;;;;12.29;74.19;100868.41;5050321;28;20032;-86
2022/03/02 10:05:09;;;;;;;74.57;36.33;;;;;;;12.29;74.22;100869.22;5051437;28;20108;-86
2022/03/02 10:07:37;;;;;;;68.63;36.65;;;;;;;12.28;74.12;100869.31;5054989;28;20029;-84
2022/03/02 10:10:17;;;;;;;69.95;34.80;;;;;;;12.22;74.75;100881.13;5055725;28;20044;-85
2022/03/02 10:12:43;;;;;;;69.55;36.17;;;;;;;12.28;74.14;100872.81;5070663;28;20029;-83
2022/03/02 10:15:12;;;;;;;71.22;36.88;;;;;;;12.41;73.63;100878.09;5072858;28;20025;-84
2022/03/02 10:17:41;;;;;;;62.67;33.88;;;;;;;12.32;73.69;100877.88;5070353;28;20024;-84
2022/03/02 10:20:09;;;;;;;69.63;35.63;;;;;;;12.36;73.94;100869.66;5069395;28;20017;-85
2022/03/02 10:22:41;;;;;;;63.70;34.00;;;;;;;12.20;74.07;100869.84;5068959;28;20033;-85
2022/03/02 10:25:12;;;;;;;68.32;34.25;;;;;;;12.26;74.35;100872.09;5062571;28;20029;-84
2022/03/02 10:28:05;;;;;;;67.13;33.20;;;;;;;12.08;74.85;100866.28;5065130;28;20033;-85
2022/03/02 10:30:33;;;;;;;61.92;32.90;;;;;;;12.33;74.01;100859.34;5061153;28;20033;-85
2022/03/02 10:33:08;;;;;;;58.28;32.42;;;;;;;12.45;74.04;100860.28;5065520;28;20028;-85
2022/03/02 10:35:39;;;;;;;54.42;31.63;;;;;;;12.43;73.53;100884.09;5061047;28;20076;-85
2022/03/02 10:38:08;;;;;;;54.53;30.52;;;;;;;12.26;74.11;100879.13;5063624;28;20047;-85
2022/03/02 10:40:36;;;;;;;58.47;31.15;;;;;;;12.50;73.73;100869.56;5062649;28;20037;-85
2022/03/02 10:43:09;;;;;;;57.28;31.15;;;;;;;12.37;73.97;100873.97;5066021;28;20053;-84
2022/03/02 10:45:49;;;;;;;52.58;29.98;;;;;;;12.35;74.44;100870.59;5063200;28;20172;-85
2022/03/02 10:48:38;;;;;;;47.50;28.13;;;;;;;12.34;74.24;100870.69;5059222;28;20509;-84
2022/03/02 10:51:08;;;;;;;49.85;28.73;;;;;;;12.56;73.18;100867.44;5052970;28;20040;-85
2022/03/02 10:53:37;;;;;;;46.38;26.45;;;;;;;12.49;73.65;100859.13;5053263;28;20082;-85
2022/03/02 10:56:04;;;;;;;46.58;28.17;;;;;;;12.39;73.97;100860.72;5053049;28;20031;-85
2022/03/02 10:58:31;;;;;;;46.85;27.75;;;;;;;12.46;74.02;100854.06;5054174;28;20060;-85
2022/03/02 11:00:59;;;;;;;43.38;26.52;;;;;;;12.56;73.69;100854.25;5052047;28;20394;-85
2022/03/02 11:03:27;;;;;;;46.38;27.05;;;;;;;12.52;74.01;100853.66;5050628;28;20121;-85
2022/03/02 11:05:55;;;;;;;42.22;26.17;;;;;;;12.58;73.64;100853.22;5051355;28;20558;-85
2022/03/02 11:08:23;;;;;;;39.35;23.55;;;;;;;12.55;73.58;100842.91;5053622;28;20025;-85
2022/03/02 11:10:49;;;;;;;39.53;24.15;;;;;;;12.61;73.34;100854.81;5051968;28;20033;-85